Time;durP1;ratioP1;P1;durP2;ratioP2;P2;SDS_P1;SDS_P2;PMS_P1;PMS_P2;Temp;Humidity;BMP_temperature;BMP_pressure;BME280_temperature;BME280_humidity;BME280_pressure;Samples;Min_cycle;Max_cycle;Signal;HPM_P1;HPM_P2
2022/12/09 00:02:43;;;;;;;6.75;3.47;;;;;;;;;;4396071;32;71521;-66
2022/12/09 00:05:30;;;;;;;4.57;2.97;;;;;;;;;;4396979;32;65915;-65
2022/12/09 00:08:16;;;;;;;5.60;3.60;;;;;;;;;;4396859;32;67217;-64
2022/12/09 00:11:04;;;;;;;5.50;3.30;;;;;;;;;;4385547;32;59894;-64
2022/12/09 00:13:58;;;;;;;5.82;3.30;;;;;;;;;;4386418;32;71371;-64
2022/12/09 00:16:50;;;;;;;5.75;3.20;;;;;;;;;;4396348;32;69192;-64
2022/12/09 00:19:37;;;;;;;7.22;3.05;;;;;;;;;;4397693;32;67600;-65
2022/12/09 00:22:26;;;;;;;6.20;2.92;;;;;;;;;;4385045;32;72931;-66
2022/12/09 00:25:12;;;;;;;5.05;2.72;;;;;;;;;;4397661;32;65748;-64
2022/12/09 00:27:59;;;;;;;4.72;2.80;;;;;;;;;;4397788;32;67206;-65
2022/12/09 00:30:46;;;;;;;6.22;3.08;;;;;;;;;;4395901;32;68661;-66
2022/12/09 00:33:33;;;;;;;4.75;2.50;;;;;;;;;;4396364;32;70771;-65
2022/12/09 00:36:20;;;;;;;4.50;2.80;;;;;;;;;;3868890;36;43077;-66
2022/12/09 00:39:08;;;;;;;6.03;2.90;;;;;;;;;;4380456;32;60773;-64
2022/12/09 00:41:54;;;;;;;5.90;2.67;;;;;;;;;;4414475;32;70352;-64
2022/12/09 00:44:41;;;;;;;5.03;2.85;;;;;;;;;;4400831;32;70214;-65
2022/12/09 00:47:28;;;;;;;6.75;3.20;;;;;;;;;;4411519;32;68166;-66
2022/12/09 00:50:15;;;;;;;7.45;3.60;;;;;;;;;;4414176;32;71908;-65
2022/12/09 00:53:02;;;;;;;5.93;3.35;;;;;;;;;;4400553;32;64807;-65
2022/12/09 00:55:48;;;;;;;5.20;3.35;;;;;;;;;;4403361;32;67342;-64
2022/12/09 00:58:35;;;;;;;6.28;3.87;;;;;;;;;;4426636;32;60254;-65
2022/12/09 01:01:22;;;;;;;7.37;3.80;;;;;;;;;;4403178;32;71686;-65
2022/12/09 01:04:08;;;;;;;6.75;3.22;;;;;;;;;;4392868;32;66045;-64
2022/12/09 01:06:55;;;;;;;5.97;3.35;;;;;;;;;;4404409;32;67518;-65
2022/12/09 01:09:41;;;;;;;6.47;3.62;;;;;;;;;;4404775;32;59134;-65
2022/12/09 01:12:28;;;;;;;5.70;3.72;;;;;;;;;;4415384;32;69350;-64
2022/12/09 01:15:14;;;;;;;5.70;3.50;;;;;;;;;;4404284;32;68498;-64
2022/12/09 01:18:01;;;;;;;5.05;3.08;;;;;;;;;;4388430;32;67592;-64
2022/12/09 01:20:56;;;;;;;6.72;3.47;;;;;;;;;;4388217;32;70698;-64
2022/12/09 01:23:43;;;;;;;5.62;3.35;;;;;;;;;;4398100;32;65818;-64
2022/12/09 01:26:29;;;;;;;8.90;3.60;;;;;;;;;;4398506;32;69344;-65
2022/12/09 01:29:17;;;;;;;5.80;3.08;;;;;;;;;;4398429;32;66723;-64
2022/12/09 01:32:04;;;;;;;5.35;3.05;;;;;;;;;;4398318;32;71914;-64
2022/12/09 01:34:50;;;;;;;6.25;3.22;;;;;;;;;;4384425;32;66818;-64
2022/12/09 01:37:37;;;;;;;5.68;3.50;;;;;;;;;;4387559;32;66659;-64
2022/12/09 01:40:24;;;;;;;6.80;3.20;;;;;;;;;;4388075;32;60080;-64
2022/12/09 01:43:17;;;;;;;7.03;3.50;;;;;;;;;;4410135;32;70407;-64
2022/12/09 01:46:03;;;;;;;6.22;3.60;;;;;;;;;;4394459;32;69352;-64
2022/12/09 01:48:50;;;;;;;6.40;3.62;;;;;;;;;;4399994;32;66887;-65
2022/12/09 01:51:37;;;;;;;;;;;;;;;;;;4388674;32;59211;-64
2022/12/09 01:54:24;;;;;;;5.10;3.15;;;;;;;;;;4400087;32;70409;-64
2022/12/09 01:57:11;;;;;;;6.90;3.80;;;;;;;;;;4364475;32;69998;-65
2022/12/09 01:59:58;;;;;;;7.68;4.35;;;;;;;;;;4364011;32;67470;-64
2022/12/09 02:02:46;;;;;;;;;;;;;;;;;;4377825;32;71771;-64
2022/12/09 02:05:33;;;;;;;7.50;3.70;;;;;;;;;;4388176;32;65951;-64
2022/12/09 02:08:19;;;;;;;6.80;3.22;;;;;;;;;;4377210;32;67425;-64
2022/12/09 02:11:32;;;;;;;5.87;2.95;;;;;;;;;;4399892;32;59192;-64
2022/12/09 02:14:26;;;;;;;6.43;3.15;;;;;;;;;;4399246;32;69598;-65
2022/12/09 02:17:23;;;;;;;6.28;3.55;;;;;;;;;;4377007;32;66213;-64
2022/12/09 02:20:40;;;;;;;6.53;3.37;;;;;;;;;;4399648;32;67598;-65
2022/12/09 02:23:49;;;;;;;6.97;3.55;;;;;;;;;;4377092;32;60245;-64
2022/12/09 02:27:02;;;;;;;7.70;4.10;;;;;;;;;;4384633;32;71262;-64
2022/12/09 02:30:00;;;;;;;9.27;3.78;;;;;;;;;;4387440;32;69176;-64
2022/12/09 02:33:13;;;;;;;8.30;3.72;;;;;;;;;;4387386;32;67735;-65
2022/12/09 02:36:07;;;;;;;12.55;4.10;;;;;;;;;;4386816;32;71748;-65
2022/12/09 02:38:54;;;;;;;6.40;3.70;;;;;;;;;;4374439;32;67180;-64
2022/12/09 02:41:43;;;;;;;5.97;3.35;;;;;;;;;;4366563;32;67479;-65
2022/12/09 02:44:31;;;;;;;6.43;3.92;;;;;;;;;;4387594;32;66920;-64
2022/12/09 02:47:23;;;;;;;7.45;3.80;;;;;;;;;;4387261;32;70820;-65
2022/12/09 02:50:13;;;;;;;6.25;3.67;;;;;;;;;;4374100;32;66926;-64
2022/12/09 02:53:03;;;;;;;9.23;3.42;;;;;;;;;;4387422;32;67780;-64
2022/12/09 02:55:51;;;;;;;7.43;4.00;;;;;;;;;;4387194;32;59554;-64
2022/12/09 02:58:38;;;;;;;8.65;4.30;;;;;;;;;;4375892;32;70749;-64
2022/12/09 03:01:44;;;;;;;9.60;4.30;;;;;;;;;;4387015;32;69246;-64
2022/12/09 03:04:31;;;;;;;6.10;3.62;;;;;;;;;;4387098;32;67867;-64
2022/12/09 03:07:50;;;;;;;6.57;4.57;;;;;;;;;;4399519;32;60283;-64
2022/12/09 03:10:38;;;;;;;6.82;3.70;;;;;;;;;;4365512;32;69688;-64
2022/12/09 03:13:50;;;;;;;6.25;3.45;;;;;;;;;;4387164;32;69719;-64
2022/12/09 03:16:51;;;;;;;5.20;3.00;;;;;;;;;;4375763;32;66611;-64
2022/12/09 03:20:17;;;;;;;6.35;3.53;;;;;;;;;;4376052;32;70743;-64
2022/12/09 03:23:05;;;;;;;6.57;3.25;;;;;;;;;;4325477;32;66176;-64
2022/12/09 03:25:51;;;;;;;6.93;3.05;;;;;;;;;;3868956;36;43101;-66
2022/12/09 03:28:47;;;;;;;5.53;3.10;;;;;;;;;;4401281;32;58093;-65
2022/12/09 03:31:36;;;;;;;4.97;3.40;;;;;;;;;;4411489;32;69394;-64
2022/12/09 03:34:28;;;;;;;5.10;2.85;;;;;;;;;;4401002;32;68424;-64
2022/12/09 03:37:17;;;;;;;5.10;3.50;;;;;;;;;;4392782;32;66608;-65
2022/12/09 03:40:06;;;;;;;7.22;3.45;;;;;;;;;;4400907;32;70769;-64
2022/12/09 03:43:01;;;;;;;6.57;3.47;;;;;;;;;;4403505;32;65663;-64
2022/12/09 03:45:48;;;;;;;4.22;2.85;;;;;;;;;;4426258;32;66280;-65
2022/12/09 03:48:35;;;;;;;4.93;2.80;;;;;;;;;;4414425;32;60405;-64
2022/12/09 03:51:44;;;;;;;5.10;3.10;;;;;;;;;;4426178;32;70866;-64
2022/12/09 03:54:48;;;;;;;6.75;3.55;;;;;;;;;;4426260;32;65869;-64
2022/12/09 03:57:39;;;;;;;5.95;3.30;;;;;;;;;;4403196;32;67771;-65
2022/12/09 04:00:25;;;;;;;8.23;3.28;;;;;;;;;;4400625;32;58940;-65
2022/12/09 04:03:13;;;;;;;7.43;3.25;;;;;;;;;;4413937;32;69549;-64
2022/12/09 04:06:00;;;;;;;6.15;3.53;;;;;;;;;;4389655;32;67290;-65
2022/12/09 04:08:47;;;;;;;5.90;3.25;;;;;;;;;;4414023;32;66714;-64
2022/12/09 04:11:34;;;;;;;6.80;3.35;;;;;;;;;;4413755;32;70860;-64
2022/12/09 04:14:20;;;;;;;3.97;3.08;;;;;;;;;;4403478;32;65923;-65
2022/12/09 04:17:07;;;;;;;5.75;3.12;;;;;;;;;;4398292;32;69370;-64
2022/12/09 04:19:54;;;;;;;;;;;;;;;;;;4385757;32;66462;-65
2022/12/09 04:22:40;;;;;;;5.32;2.90;;;;;;;;;;4376953;32;72228;-64
2022/12/09 04:25:27;;;;;;;5.00;3.00;;;;;;;;;;4397914;32;65828;-64
2022/12/09 04:28:13;;;;;;;5.37;2.78;;;;;;;;;;4396004;32;65372;-64
2022/12/09 04:31:00;;;;;;;5.37;2.85;;;;;;;;;;4399051;32;59911;-64
2022/12/09 04:33:47;;;;;;;5.57;3.25;;;;;;;;;;4389157;32;69507;-68
2022/12/09 04:36:34;;;;;;;4.68;3.08;;;;;;;;;;4391423;32;69235;-64
2022/12/09 04:39:21;;;;;;;8.25;3.22;;;;;;;;;;4388709;32;67430;-64
2022/12/09 04:42:08;;;;;;;7.22;3.25;;;;;;;;;;4378221;32;60500;-64
2022/12/09 04:44:54;;;;;;;5.30;2.85;;;;;;;;;;4387916;32;70348;-66
2022/12/09 04:47:41;;;;;;;6.37;3.80;;;;;;;;;;4398696;32;69434;-64
2022/12/09 04:50:28;;;;;;;6.40;3.60;;;;;;;;;;4399839;32;66655;-65
2022/12/09 04:53:14;;;;;;;;;;;;;;;;;;4400269;32;70791;-64
2022/12/09 04:56:03;;;;;;;8.75;3.58;;;;;;;;;;4364120;32;64437;-64
2022/12/09 04:58:50;;;;;;;5.87;3.12;;;;;;;;;;4377170;32;67112;-64
2022/12/09 05:01:37;;;;;;;;;;;;;;;;;;4400477;32;60253;-65
2022/12/09 05:04:23;;;;;;;8.55;3.62;;;;;;;;;;4387767;32;69499;-65
2022/12/09 05:07:11;;;;;;;5.40;3.62;;;;;;;;;;4377106;32;65682;-65
2022/12/09 05:09:57;;;;;;;6.22;3.60;;;;;;;;;;3847636;37;43429;-65
2022/12/09 05:12:44;;;;;;;8.95;3.95;;;;;;;;;;4398893;32;58990;-65
2022/12/09 05:15:31;;;;;;;6.55;3.97;;;;;;;;;;4409472;32;70773;-65
2022/12/09 05:18:18;;;;;;;8.35;4.03;;;;;;;;;;4409703;32;69104;-65
2022/12/09 05:21:06;;;;;;;5.53;3.55;;;;;;;;;;4398955;32;67520;-65
2022/12/09 05:23:53;;;;;;;6.55;3.45;;;;;;;;;;4387913;32;70244;-65
2022/12/09 05:26:39;;;;;;;8.18;4.20;;;;;;;;;;4398913;32;65759;-65
2022/12/09 05:29:26;;;;;;;8.50;3.70;;;;;;;;;;4387342;32;64892;-65
2022/12/09 05:32:12;;;;;;;6.70;3.90;;;;;;;;;;4410955;32;60016;-65
2022/12/09 05:34:59;;;;;;;;;;;;;;;;;;4398314;32;70783;-65
2022/12/09 05:37:49;;;;;;;7.75;4.00;;;;;;;;;;4398285;32;65530;-65
2022/12/09 05:40:36;;;;;;;11.57;4.60;;;;;;;;;;4398507;32;67703;-65
2022/12/09 05:43:23;;;;;;;6.68;4.00;;;;;;;;;;4409575;32;59229;-65
2022/12/09 05:46:10;;;;;;;7.03;4.25;;;;;;;;;;4409083;32;69577;-65
2022/12/09 05:48:57;;;;;;;7.25;3.95;;;;;;;;;;4409109;32;68210;-65
2022/12/09 05:51:43;;;;;;;8.40;4.80;;;;;;;;;;4397837;32;66589;-65
2022/12/09 05:54:30;;;;;;;8.07;4.28;;;;;;;;;;4409045;32;71670;-65
2022/12/09 05:57:17;;;;;;;6.78;3.97;;;;;;;;;;4398096;32;64967;-65
2022/12/09 06:00:05;;;;;;;6.35;3.95;;;;;;;;;;4410313;32;69284;-65
2022/12/09 06:02:57;;;;;;;7.37;4.22;;;;;;;;;;4410473;32;66622;-65
2022/12/09 06:05:44;;;;;;;;;;;;;;;;;;4410471;32;70814;-66
2022/12/09 06:08:31;;;;;;;5.22;3.17;;;;;;;;;;4410189;32;66203;-65
2022/12/09 06:11:19;;;;;;;5.43;2.62;;;;;;;;;;4397810;32;69122;-65
2022/12/09 06:14:10;;;;;;;5.90;3.58;;;;;;;;;;4409354;32;59329;-65
2022/12/09 06:16:58;;;;;;;7.22;3.78;;;;;;;;;;4398054;32;70855;-65
2022/12/09 06:19:44;;;;;;;5.47;3.20;;;;;;;;;;4394453;32;69397;-66
2022/12/09 06:22:31;;;;;;;4.97;2.60;;;;;;;;;;4387472;32;66926;-65
2022/12/09 06:25:18;;;;;;;2.92;1.58;;;;;;;;;;4388264;32;59099;-65
2022/12/09 06:28:05;;;;;;;4.00;1.75;;;;;;;;;;4387630;32;70393;-65
2022/12/09 06:30:51;;;;;;;7.05;4.35;;;;;;;;;;4398523;32;69407;-65
2022/12/09 06:33:38;;;;;;;9.38;4.68;;;;;;;;;;4387282;32;68393;-65
2022/12/09 06:36:26;;;;;;;7.20;4.25;;;;;;;;;;4398258;32;71759;-65
2022/12/09 06:39:13;;;;;;;7.12;4.18;;;;;;;;;;4387155;32;66250;-65
2022/12/09 06:41:59;;;;;;;7.87;4.75;;;;;;;;;;4387067;32;67383;-65
2022/12/09 06:44:46;;;;;;;9.40;4.68;;;;;;;;;;4387896;32;60384;-65
2022/12/09 06:47:33;;;;;;;8.02;4.95;;;;;;;;;;4376639;32;71626;-65
2022/12/09 06:50:20;;;;;;;7.85;4.40;;;;;;;;;;4399903;32;65051;-64
2022/12/09 06:53:06;;;;;;;6.72;4.57;;;;;;;;;;4398747;32;66875;-65
2022/12/09 06:55:53;;;;;;;8.77;5.18;;;;;;;;;;4388020;32;59244;-65
2022/12/09 06:58:41;;;;;;;9.70;5.00;;;;;;;;;;4387068;32;70236;-66
2022/12/09 07:01:28;;;;;;;7.65;4.47;;;;;;;;;;4376623;32;70039;-65
2022/12/09 07:04:15;;;;;;;9.02;4.82;;;;;;;;;;4376269;32;68280;-65
2022/12/09 07:07:01;;;;;;;7.95;4.35;;;;;;;;;;4365803;32;72419;-65
2022/12/09 07:09:53;;;;;;;11.02;5.62;;;;;;;;;;4398112;32;65840;-65
2022/12/09 07:12:41;;;;;;;8.25;3.87;;;;;;;;;;4376331;32;68222;-65
2022/12/09 07:15:27;;;;;;;;;;;;;;;;;;4387720;32;67535;-66
2022/12/09 07:18:14;;;;;;;7.10;4.15;;;;;;;;;;4376292;32;69723;-64
2022/12/09 07:21:15;;;;;;;6.35;4.15;;;;;;;;;;4399485;32;65211;-64
2022/12/09 07:24:02;;;;;;;9.55;5.18;;;;;;;;;;4399112;32;67465;-64
2022/12/09 07:26:49;;;;;;;10.95;4.30;;;;;;;;;;4397801;32;61009;-64
2022/12/09 07:29:36;;;;;;;;;;;;;;;;;;4379269;32;70299;-64
2022/12/09 07:32:23;;;;;;;6.32;4.05;;;;;;;;;;4399582;32;69705;-66
2022/12/09 07:35:09;;;;;;;8.32;5.25;;;;;;;;;;4400460;32;66998;-70
2022/12/09 07:37:56;;;;;;;6.80;4.53;;;;;;;;;;4388263;32;60397;-65
2022/12/09 07:40:43;;;;;;;8.25;4.55;;;;;;;;;;4397764;32;71272;-65
2022/12/09 07:43:31;;;;;;;7.93;4.85;;;;;;;;;;4387359;32;69245;-64
2022/12/09 07:46:19;;;;;;;8.50;4.57;;;;;;;;;;4398236;32;66741;-65
2022/12/09 07:49:06;;;;;;;8.40;4.78;;;;;;;;;;4387255;32;71182;-64
2022/12/09 07:51:53;;;;;;;8.07;5.25;;;;;;;;;;4386603;32;66849;-65
2022/12/09 07:54:39;;;;;;;10.10;6.05;;;;;;;;;;4376702;32;67344;-66
2022/12/09 07:57:27;;;;;;;12.45;6.28;;;;;;;;;;4376397;32;60343;-64
2022/12/09 08:00:13;;;;;;;;;;;;;;;;;;4386545;32;68098;-65
2022/12/09 08:03:00;;;;;;;10.48;6.18;;;;;;;;;;4387217;32;65702;-65
2022/12/09 08:05:51;;;;;;;12.23;7.20;;;;;;;;;;4398737;32;67695;-64
2022/12/09 08:08:38;;;;;;;11.05;6.28;;;;;;;;;;4375720;32;60262;-64
2022/12/09 08:11:28;;;;;;;10.77;6.30;;;;;;;;;;4375080;32;71571;-64
2022/12/09 08:14:15;;;;;;;9.93;6.90;;;;;;;;;;4386583;32;69576;-64
2022/12/09 08:17:02;;;;;;;13.75;7.12;;;;;;;;;;4375241;32;67241;-64
2022/12/09 08:19:50;;;;;;;12.13;7.47;;;;;;;;;;4386057;32;69241;-65
2022/12/09 08:22:37;;;;;;;11.82;7.20;;;;;;;;;;4375098;32;65438;-65
2022/12/09 08:25:24;;;;;;;;;;;;;;;;;;4375650;32;66795;-66
2022/12/09 08:28:10;;;;;;;11.88;6.28;;;;;;;;;;4375563;32;66901;-66
2022/12/09 08:30:57;;;;;;;14.65;8.77;;;;;;;;;;4397035;32;71584;-65
2022/12/09 08:33:44;;;;;;;11.77;7.45;;;;;;;;;;4385831;32;66288;-64
2022/12/09 08:36:31;;;;;;;;;;;;;;;;;;4397552;32;67575;-65
2022/12/09 08:39:17;;;;;;;13.48;9.02;;;;;;;;;;4375950;32;58837;-64
2022/12/09 08:42:04;;;;;;;16.75;8.52;;;;;;;;;;4385646;32;71772;-65
2022/12/09 08:44:51;;;;;;;16.17;10.57;;;;;;;;;;4386748;32;69418;-64
2022/12/09 08:47:38;;;;;;;16.00;9.23;;;;;;;;;;4381845;32;66887;-64
2022/12/09 08:50:24;;;;;;;16.62;11.00;;;;;;;;;;4371303;32;72145;-64
2022/12/09 08:53:11;;;;;;;18.58;10.70;;;;;;;;;;4381996;32;70749;-64
2022/12/09 08:55:57;;;;;;;;;;;;;;;;;;4371509;32;69036;-64
2022/12/09 08:58:45;;;;;;;20.23;10.82;;;;;;;;;;4383314;32;67243;-64
2022/12/09 09:01:33;;;;;;;19.30;10.65;;;;;;;;;;4380961;32;71782;-64
2022/12/09 09:04:21;;;;;;;18.12;9.48;;;;;;;;;;4381397;32;65870;-64
2022/12/09 09:07:08;;;;;;;13.80;7.80;;;;;;;;;;4381584;32;67725;-64
2022/12/09 09:09:56;;;;;;;20.00;10.57;;;;;;;;;;4370926;32;59555;-64
2022/12/09 09:12:43;;;;;;;18.45;8.40;;;;;;;;;;4370008;32;70371;-64
2022/12/09 09:15:30;;;;;;;23.08;11.23;;;;;;;;;;4370913;32;69081;-64
2022/12/09 09:18:16;;;;;;;23.27;11.18;;;;;;;;;;4381600;32;67843;-64
2022/12/09 09:21:04;;;;;;;18.77;8.93;;;;;;;;;;4381202;32;60837;-64
2022/12/09 09:23:52;;;;;;;24.12;12.37;;;;;;;;;;4370227;32;68990;-65
2022/12/09 09:26:41;;;;;;;;;;;;;;;;;;4382944;32;68360;-65
2022/12/09 09:29:28;;;;;;;25.92;13.90;;;;;;;;;;4381576;32;68175;-64
2022/12/09 09:32:15;;;;;;;26.83;13.85;;;;;;;;;;4381295;32;71649;-65
2022/12/09 09:35:02;;;;;;;30.37;17.35;;;;;;;;;;4369820;32;67431;-64
2022/12/09 09:37:50;;;;;;;31.40;16.92;;;;;;;;;;4381295;32;66571;-64
2022/12/09 09:40:40;;;;;;;32.38;18.52;;;;;;;;;;4382917;32;61069;-64
2022/12/09 09:43:30;;;;;;;37.22;19.42;;;;;;;;;;4381249;32;71514;-64
2022/12/09 09:46:27;;;;;;;37.65;20.08;;;;;;;;;;4369783;32;67073;-65
2022/12/09 09:49:35;;;;;;;;;;;;;;;;;;4370223;32;67303;-64
2022/12/09 09:52:24;;;;;;;41.05;22.23;;;;;;;;;;4382925;32;59615;-64
2022/12/09 09:55:17;;;;;;;48.75;24.60;;;;;;;;;;4382170;32;70252;-65
2022/12/09 09:58:30;;;;;;;48.40;24.08;;;;;;;;;;3847531;37;43836;-64
2022/12/09 10:01:19;;;;;;;50.15;25.15;;;;;;;;;;4399516;32;59383;-64
2022/12/09 10:04:25;;;;;;;51.03;25.08;;;;;;;;;;4408758;32;70396;-64
2022/12/09 10:07:36;;;;;;;56.17;28.17;;;;;;;;;;4387996;32;69521;-65
2022/12/09 10:10:47;;;;;;;65.20;29.55;;;;;;;;;;4410960;32;67872;-64
2022/12/09 10:13:44;;;;;;;61.45;33.50;;;;;;;;;;4409239;32;70696;-64
2022/12/09 10:16:34;;;;;;;;;;;;;;;;;;4398288;32;66730;-65
2022/12/09 10:19:42;;;;;;;74.80;36.33;;;;;;;;;;4399112;32;67284;-66
2022/12/09 10:22:47;;;;;;;75.53;35.83;;;;;;;;;;4398972;32;59479;-64
2022/12/09 10:25:37;;;;;;;78.37;38.08;;;;;;;;;;4409178;32;71940;-64
2022/12/09 10:28:32;;;;;;;89.40;40.40;;;;;;;;;;4398042;32;66256;-64
2022/12/09 10:31:19;;;;;;;95.40;47.15;;;;;;;;;;4410759;32;67740;-65
2022/12/09 10:34:09;;;;;;;98.68;50.70;;;;;;;;;;4398948;32;60534;-65
2022/12/09 10:36:55;;;;;;;99.78;46.45;;;;;;;;;;4410563;32;70840;-64
2022/12/09 10:39:42;;;;;;;;;;;;;;;;;;4409524;32;68393;-65
2022/12/09 10:45:45;;;;;;;98.55;46.70;;;;;;;;;;4399414;32;71093;-64
2022/12/09 10:48:43;;;;;;;101.47;44.00;;;;;;;;;;4409369;32;65577;-64
2022/12/09 10:51:48;;;;;;;95.38;41.95;;;;;;;;;;4397200;32;69726;-64
2022/12/09 10:54:40;;;;;;;101.20;46.78;;;;;;;;;;4390522;32;68455;-64
2022/12/09 10:57:28;;;;;;;92.88;40.15;;;;;;;;;;4399552;32;71564;-64
2022/12/09 11:00:23;;;;;;;95.87;45.58;;;;;;;;;;4410341;32;66511;-64
2022/12/09 11:03:25;;;;;;;90.93;38.60;;;;;;;;;;4409036;32;67885;-64
2022/12/09 11:06:25;;;;;;;81.63;41.03;;;;;;;;;;4397677;32;60085;-64
2022/12/09 11:09:38;;;;;;;80.40;40.22;;;;;;;;;;4377140;32;71415;-65
2022/12/09 11:12:27;;;;;;;71.05;36.55;;;;;;;;;;4387239;32;70651;-64
2022/12/09 11:15:44;;;;;;;76.78;42.92;;;;;;;;;;4387885;32;68055;-65
2022/12/09 11:18:36;;;;;;;65.72;30.70;;;;;;;;;;4372619;32;61412;-64
2022/12/09 11:21:32;;;;;;;60.22;32.63;;;;;;;;;;4398652;32;69594;-64
2022/12/09 11:24:24;;;;;;;54.00;25.33;;;;;;;;;;4387745;32;69267;-65
2022/12/09 11:27:26;;;;;;;60.45;28.08;;;;;;;;;;4398404;32;67578;-65
2022/12/09 11:30:16;;;;;;;51.75;23.65;;;;;;;;;;4398193;32;71908;-64
2022/12/09 11:33:17;;;;;;;52.45;23.27;;;;;;;;;;4398477;32;66148;-64
2022/12/09 11:36:08;;;;;;;54.08;25.30;;;;;;;;;;4398194;32;66676;-64
2022/12/09 11:39:22;;;;;;;54.58;27.65;;;;;;;;;;4387850;32;59450;-64
2022/12/09 11:42:17;;;;;;;56.58;25.98;;;;;;;;;;4398099;32;70118;-64
2022/12/09 11:45:18;;;;;;;60.12;30.92;;;;;;;;;;4397427;32;65983;-64
2022/12/09 11:48:19;;;;;;;62.22;29.67;;;;;;;;;;4386689;32;68161;-64
2022/12/09 11:51:06;;;;;;;60.70;28.02;;;;;;;;;;4386930;32;60942;-63
2022/12/09 11:54:10;;;;;;;63.13;27.77;;;;;;;;;;4399317;32;70974;-64
2022/12/09 11:56:59;;;;;;;73.22;32.88;;;;;;;;;;4387441;32;69548;-64
2022/12/09 11:59:51;;;;;;;64.95;28.80;;;;;;;;;;4387222;32;67560;-64
2022/12/09 12:02:42;;;;;;;63.08;27.62;;;;;;;;;;4386599;32;71422;-64
2022/12/09 12:05:49;;;;;;;72.20;29.77;;;;;;;;;;4398159;32;64945;-64
2022/12/09 12:11:42;;;;;;;64.10;28.55;;;;;;;;;;3847464;37;43824;-64
2022/12/09 12:14:30;;;;;;;64.37;27.50;;;;;;;;;;4409958;32;60219;-65
2022/12/09 12:17:22;;;;;;;60.12;28.58;;;;;;;;;;4388298;32;69624;-64
2022/12/09 12:20:13;;;;;;;49.70;22.15;;;;;;;;;;4394230;32;69464;-64
2022/12/09 12:23:22;;;;;;;56.22;23.90;;;;;;;;;;4383175;32;67318;-63
2022/12/09 12:26:25;;;;;;;50.20;24.70;;;;;;;;;;4394056;32;71694;-63
2022/12/09 12:29:18;;;;;;;47.42;22.85;;;;;;;;;;4394509;32;65250;-64
2022/12/09 12:32:32;;;;;;;47.20;23.17;;;;;;;;;;4394310;32;66238;-65
2022/12/09 12:35:30;;;;;;;41.03;19.42;;;;;;;;;;4395460;32;59459;-64
2022/12/09 12:38:28;;;;;;;42.05;19.17;;;;;;;;;;4393481;32;72344;-65
2022/12/09 12:41:46;;;;;;;42.62;19.33;;;;;;;;;;4395407;32;66038;-64
2022/12/09 12:48:11;;;;;;;33.65;15.02;;;;;;;;;;4394582;32;60120;-64
2022/12/09 12:51:07;;;;;;;27.45;12.32;;;;;;;;;;4393766;32;69708;-63
2022/12/09 12:54:14;;;;;;;23.77;10.68;;;;;;;;;;4395236;32;69507;-64
2022/12/09 12:57:10;;;;;;;21.13;10.00;;;;;;;;;;4394633;32;66788;-65
2022/12/09 13:00:11;;;;;;;16.45;8.45;;;;;;;;;;4393620;32;71893;-67
2022/12/09 13:03:39;;;;;;;17.80;9.30;;;;;;;;;;4394063;32;64902;-64
2022/12/09 13:06:53;;;;;;;16.15;8.68;;;;;;;;;;4336498;32;69563;-65
2022/12/09 13:10:13;;;;;;;12.43;7.60;;;;;;;;;;4336115;32;67861;-64
2022/12/09 13:13:02;;;;;;;12.55;6.75;;;;;;;;;;4394605;32;71996;-66
2022/12/09 13:15:52;;;;;;;13.80;6.47;;;;;;;;;;4392877;32;66471;-66
2022/12/09 13:18:39;;;;;;;12.80;7.32;;;;;;;;;;4393734;32;66541;-66
2022/12/09 13:21:25;;;;;;;;;;;;;;;;;;4390012;32;59959;-66
2022/12/09 13:24:32;;;;;;;12.15;6.20;;;;;;;;;;4372159;32;70187;-65
2022/12/09 13:27:37;;;;;;;11.80;7.32;;;;;;;;;;4383175;32;68489;-66
2022/12/09 13:30:42;;;;;;;12.30;6.07;;;;;;;;;;4393998;32;66840;-66
2022/12/09 13:33:52;;;;;;;8.77;5.80;;;;;;;;;;4372231;32;60761;-65
2022/12/09 13:36:45;;;;;;;10.45;5.93;;;;;;;;;;4393843;32;70203;-65
2022/12/09 13:39:44;;;;;;;8.23;4.90;;;;;;;;;;4383149;32;68275;-66
2022/12/09 13:45:43;;;;;;;9.32;5.18;;;;;;;;;;4371652;32;71404;-67
2022/12/09 13:48:29;;;;;;;8.82;4.32;;;;;;;;;;4384748;32;65833;-66
2022/12/09 13:51:17;;;;;;;7.30;4.35;;;;;;;;;;4384325;32;67299;-67
2022/12/09 13:54:06;;;;;;;6.90;4.10;;;;;;;;;;4372870;32;60200;-64
2022/12/09 13:57:08;;;;;;;8.45;4.07;;;;;;;;;;4384646;32;70396;-66
2022/12/09 13:59:59;;;;;;;6.18;4.05;;;;;;;;;;4387943;32;65855;-65
2022/12/09 14:03:11;;;;;;;5.85;3.55;;;;;;;;;;4390287;32;67495;-65
2022/12/09 14:06:01;;;;;;;7.07;3.90;;;;;;;;;;4390011;32;59786;-65
2022/12/09 14:08:51;;;;;;;6.43;3.72;;;;;;;;;;4388153;32;69873;-66
2022/12/09 14:11:38;;;;;;;7.20;3.65;;;;;;;;;;4388983;32;70041;-67
2022/12/09 14:14:24;;;;;;;8.18;3.60;;;;;;;;;;4384858;32;66848;-65
2022/12/09 14:17:16;;;;;;;;;;;;;;;;;;4384430;32;70984;-65
2022/12/09 14:20:39;;;;;;;5.90;3.30;;;;;;;;;;4383164;32;66055;-67
2022/12/09 14:23:26;;;;;;;7.95;4.00;;;;;;;;;;4326473;32;67585;-65
2022/12/09 14:26:33;;;;;;;7.78;3.70;;;;;;;;;;4383111;32;67806;-65
2022/12/09 14:29:42;;;;;;;6.53;3.22;;;;;;;;;;4372060;32;71671;-64
2022/12/09 14:32:35;;;;;;;4.62;2.90;;;;;;;;;;4371034;32;64396;-64
2022/12/09 14:35:31;;;;;;;5.78;2.70;;;;;;;;;;4372181;32;66636;-65
2022/12/09 14:38:49;;;;;;;7.68;3.20;;;;;;;;;;4384315;32;59163;-66
2022/12/09 14:41:35;;;;;;;5.57;3.12;;;;;;;;;;4395002;32;69426;-65
2022/12/09 14:44:25;;;;;;;7.65;3.12;;;;;;;;;;4383975;32;69337;-64
2022/12/09 14:47:28;;;;;;;5.65;2.80;;;;;;;;;;4383441;32;67887;-65
2022/12/09 14:50:22;;;;;;;6.43;3.40;;;;;;;;;;4371903;32;58667;-64
2022/12/09 14:53:22;;;;;;;5.05;2.90;;;;;;;;;;4371197;32;70980;-64
2022/12/09 14:56:19;;;;;;;4.12;2.72;;;;;;;;;;4383467;32;69923;-64
2022/12/09 14:59:13;;;;;;;6.22;3.15;;;;;;;;;;4381972;32;68059;-65
2022/12/09 15:02:22;;;;;;;6.97;3.22;;;;;;;;;;4381218;32;72367;-64
2022/12/09 15:05:16;;;;;;;9.02;3.17;;;;;;;;;;4382247;32;66217;-64
2022/12/09 15:08:04;;;;;;;8.20;3.50;;;;;;;;;;4382480;32;67695;-65
2022/12/09 15:10:51;;;;;;;5.55;2.90;;;;;;;;;;4382025;32;60124;-65
2022/12/09 15:13:40;;;;;;;4.47;3.00;;;;;;;;;;4370881;32;70385;-65
2022/12/09 15:16:26;;;;;;;10.52;3.58;;;;;;;;;;4383548;32;65040;-65
2022/12/09 15:19:25;;;;;;;5.40;3.03;;;;;;;;;;4381834;32;68078;-64
2022/12/09 15:22:21;;;;;;;5.32;2.75;;;;;;;;;;4382343;32;60198;-64
2022/12/09 15:25:17;;;;;;;6.25;2.97;;;;;;;;;;4371667;32;70403;-65
2022/12/09 15:28:11;;;;;;;4.28;2.65;;;;;;;;;;4381772;32;69557;-64
2022/12/09 15:30:59;;;;;;;6.12;3.15;;;;;;;;;;4381020;32;68425;-65
2022/12/09 15:33:49;;;;;;;5.12;2.62;;;;;;;;;;4382141;32;71269;-66
2022/12/09 15:36:39;;;;;;;9.23;2.92;;;;;;;;;;4360151;32;65893;-64
2022/12/09 15:39:37;;;;;;;6.75;2.70;;;;;;;;;;4371524;32;67804;-66
2022/12/09 15:42:26;;;;;;;8.35;3.12;;;;;;;;;;4370513;32;67632;-65
2022/12/09 15:45:16;;;;;;;5.47;2.15;;;;;;;;;;4359705;32;71964;-64
2022/12/09 15:48:13;;;;;;;6.82;2.95;;;;;;;;;;4383178;32;65993;-65
2022/12/09 15:51:05;;;;;;;5.40;2.67;;;;;;;;;;4381788;32;67398;-64
2022/12/09 15:54:08;;;;;;;3.97;2.47;;;;;;;;;;4382177;32;60089;-65
2022/12/09 15:57:01;;;;;;;5.62;3.00;;;;;;;;;;4381128;32;70166;-64
2022/12/09 15:59:54;;;;;;;4.70;2.50;;;;;;;;;;4381670;32;68407;-64
2022/12/09 16:02:42;;;;;;;5.85;2.42;;;;;;;;;;4392693;32;66757;-64
2022/12/09 16:05:29;;;;;;;4.65;2.60;;;;;;;;;;4382332;32;70863;-64
2022/12/09 16:08:16;;;;;;;3.85;2.60;;;;;;;;;;4382930;32;69147;-65
2022/12/09 16:11:03;;;;;;;6.97;2.80;;;;;;;;;;4373213;32;70614;-64
2022/12/09 16:14:00;;;;;;;5.45;2.92;;;;;;;;;;4372191;32;66185;-65
2022/12/09 16:16:48;;;;;;;4.93;3.07;;;;;;;;;;4394050;32;71649;-65
2022/12/09 16:19:37;;;;;;;5.40;3.22;;;;;;;;;;4372709;32;65129;-64
2022/12/09 16:22:31;;;;;;;4.20;2.22;;;;;;;;;;4371237;32;66446;-64
2022/12/09 16:25:26;;;;;;;6.05;2.58;;;;;;;;;;4374239;32;60219;-64
2022/12/09 16:28:22;;;;;;;4.85;2.30;;;;;;;;;;4373674;32;71382;-65
2022/12/09 16:31:20;;;;;;;3.40;2.40;;;;;;;;;;4384332;32;69516;-64
2022/12/09 16:34:21;;;;;;;4.82;2.53;;;;;;;;;;4385908;32;67637;-64
2022/12/09 16:37:31;;;;;;;5.32;2.40;;;;;;;;;;4374150;32;60234;-65
2022/12/09 16:40:21;;;;;;;3.65;2.35;;;;;;;;;;4371837;32;71318;-64
2022/12/09 16:43:16;;;;;;;4.75;2.25;;;;;;;;;;4384124;32;69565;-65
2022/12/09 16:46:14;;;;;;;5.78;2.58;;;;;;;;;;4386248;32;67558;-65
2022/12/09 16:49:03;;;;;;;5.03;2.45;;;;;;;;;;4385124;32;71432;-65
2022/12/09 16:51:50;;;;;;;4.28;2.50;;;;;;;;;;4385992;32;65562;-64
2022/12/09 16:54:37;;;;;;;6.03;2.90;;;;;;;;;;4384811;32;66623;-65
2022/12/09 16:57:24;;;;;;;6.75;2.53;;;;;;;;;;4376633;32;60308;-65
2022/12/09 17:00:12;;;;;;;4.25;2.12;;;;;;;;;;4386453;32;70805;-65
2022/12/09 17:03:06;;;;;;;3.22;2.15;;;;;;;;;;4387532;32;66019;-66
2022/12/09 17:05:52;;;;;;;4.12;2.47;;;;;;;;;;4386389;32;68036;-65
2022/12/09 17:08:39;;;;;;;;;;;;;;;;;;4388458;32;59075;-65
2022/12/09 17:11:25;;;;;;;4.30;1.95;;;;;;;;;;4385349;32;69854;-65
2022/12/09 17:14:12;;;;;;;5.10;2.58;;;;;;;;;;4385233;32;68565;-66
2022/12/09 17:16:59;;;;;;;5.43;2.10;;;;;;;;;;4384559;32;67138;-65
2022/12/09 17:19:46;;;;;;;6.05;2.80;;;;;;;;;;4386103;32;70906;-65
2022/12/09 17:22:32;;;;;;;5.05;2.22;;;;;;;;;;4394321;32;69603;-65
2022/12/09 17:25:18;;;;;;;5.95;2.50;;;;;;;;;;4384396;32;68625;-65